sensor_id;sensor_type;location;lat;lon;timestamp;P1;durP1;ratioP1;P2;durP2;ratioP2
19854;SDS011;10088;47.946;2.532;2023-07-28T00:01:19;5.47;;;3.70;;
19854;SDS011;10088;47.946;2.532;2023-07-28T00:03:44;4.83;;;3.13;;
19854;SDS011;10088;47.946;2.532;2023-07-28T00:06:09;4.63;;;3.27;;
19854;SDS011;10088;47.946;2.532;2023-07-28T00:08:35;3.70;;;3.30;;
19854;SDS011;10088;47.946;2.532;2023-07-28T00:11:00;4.50;;;3.60;;
19854;SDS011;10088;47.946;2.532;2023-07-28T00:13:25;6.10;;;3.53;;
19854;SDS011;10088;47.946;2.532;2023-07-28T00:15:51;4.33;;;3.30;;
19854;SDS011;10088;47.946;2.532;2023-07-28T00:18:16;3.87;;;3.10;;
19854;SDS011;10088;47.946;2.532;2023-07-28T00:20:43;6.20;;;3.37;;
19854;SDS011;10088;47.946;2.532;2023-07-28T00:23:08;4.80;;;3.63;;
19854;SDS011;10088;47.946;2.532;2023-07-28T00:25:34;3.67;;;2.87;;
19854;SDS011;10088;47.946;2.532;2023-07-28T00:27:59;3.83;;;3.27;;
19854;SDS011;10088;47.946;2.532;2023-07-28T00:30:24;5.27;;;3.67;;
19854;SDS011;10088;47.946;2.532;2023-07-28T00:32:50;4.30;;;3.67;;
19854;SDS011;10088;47.946;2.532;2023-07-28T00:35:15;4.23;;;3.67;;
19854;SDS011;10088;47.946;2.532;2023-07-28T00:37:41;6.93;;;3.90;;
19854;SDS011;10088;47.946;2.532;2023-07-28T00:40:06;4.60;;;4.20;;
19854;SDS011;10088;47.946;2.532;2023-07-28T00:42:31;7.00;;;3.97;;
19854;SDS011;10088;47.946;2.532;2023-07-28T00:44:57;6.57;;;4.10;;
19854;SDS011;10088;47.946;2.532;2023-07-28T00:47:22;4.77;;;3.63;;
19854;SDS011;10088;47.946;2.532;2023-07-28T00:49:47;8.40;;;3.90;;
19854;SDS011;10088;47.946;2.532;2023-07-28T00:52:12;4.37;;;3.70;;
19854;SDS011;10088;47.946;2.532;2023-07-28T00:54:38;4.37;;;3.70;;
19854;SDS011;10088;47.946;2.532;2023-07-28T00:57:04;5.17;;;3.60;;
19854;SDS011;10088;47.946;2.532;2023-07-28T00:59:30;5.57;;;3.80;;
19854;SDS011;10088;47.946;2.532;2023-07-28T01:01:55;5.00;;;3.73;;
19854;SDS011;10088;47.946;2.532;2023-07-28T01:04:21;4.27;;;3.60;;
19854;SDS011;10088;47.946;2.532;2023-07-28T01:06:53;3.97;;;3.20;;
19854;SDS011;10088;47.946;2.532;2023-07-28T01:09:21;7.30;;;3.67;;
19854;SDS011;10088;47.946;2.532;2023-07-28T01:14:19;4.63;;;3.53;;
19854;SDS011;10088;47.946;2.532;2023-07-28T01:16:44;4.83;;;3.63;;
19854;SDS011;10088;47.946;2.532;2023-07-28T01:19:10;3.57;;;3.23;;
19854;SDS011;10088;47.946;2.532;2023-07-28T01:21:36;4.93;;;4.10;;
19854;SDS011;10088;47.946;2.532;2023-07-28T01:24:06;4.33;;;3.60;;
19854;SDS011;10088;47.946;2.532;2023-07-28T01:26:36;5.27;;;3.80;;
19854;SDS011;10088;47.946;2.532;2023-07-28T01:29:02;4.63;;;3.40;;
19854;SDS011;10088;47.946;2.532;2023-07-28T01:31:28;5.37;;;3.50;;
19854;SDS011;10088;47.946;2.532;2023-07-28T01:33:54;5.30;;;4.00;;
19854;SDS011;10088;47.946;2.532;2023-07-28T01:36:19;5.00;;;3.97;;
19854;SDS011;10088;47.946;2.532;2023-07-28T01:38:44;5.47;;;3.67;;
19854;SDS011;10088;47.946;2.532;2023-07-28T01:41:09;9.13;;;3.83;;
19854;SDS011;10088;47.946;2.532;2023-07-28T01:43:35;6.47;;;4.00;;
19854;SDS011;10088;47.946;2.532;2023-07-28T01:46:00;4.63;;;3.80;;
19854;SDS011;10088;47.946;2.532;2023-07-28T01:48:26;5.30;;;3.47;;
19854;SDS011;10088;47.946;2.532;2023-07-28T01:50:51;4.07;;;3.67;;
19854;SDS011;10088;47.946;2.532;2023-07-28T01:53:16;5.57;;;3.63;;
19854;SDS011;10088;47.946;2.532;2023-07-28T01:55:41;8.03;;;3.73;;
19854;SDS011;10088;47.946;2.532;2023-07-28T01:58:07;4.93;;;4.00;;
19854;SDS011;10088;47.946;2.532;2023-07-28T02:00:32;5.80;;;3.53;;
19854;SDS011;10088;47.946;2.532;2023-07-28T02:02:57;7.30;;;4.37;;
19854;SDS011;10088;47.946;2.532;2023-07-28T02:05:24;5.00;;;4.00;;
19854;SDS011;10088;47.946;2.532;2023-07-28T02:07:49;5.50;;;3.50;;
19854;SDS011;10088;47.946;2.532;2023-07-28T02:10:14;5.83;;;4.67;;
19854;SDS011;10088;47.946;2.532;2023-07-28T02:12:39;4.70;;;3.53;;
19854;SDS011;10088;47.946;2.532;2023-07-28T02:15:05;4.27;;;3.87;;
19854;SDS011;10088;47.946;2.532;2023-07-28T02:17:30;6.53;;;3.90;;
19854;SDS011;10088;47.946;2.532;2023-07-28T02:19:56;4.57;;;3.80;;
19854;SDS011;10088;47.946;2.532;2023-07-28T02:22:21;4.20;;;3.73;;
19854;SDS011;10088;47.946;2.532;2023-07-28T02:24:46;5.53;;;4.47;;
19854;SDS011;10088;47.946;2.532;2023-07-28T02:27:12;5.20;;;4.10;;
19854;SDS011;10088;47.946;2.532;2023-07-28T02:29:37;5.87;;;4.50;;
19854;SDS011;10088;47.946;2.532;2023-07-28T02:32:02;5.30;;;4.30;;
19854;SDS011;10088;47.946;2.532;2023-07-28T02:34:27;7.07;;;4.07;;
19854;SDS011;10088;47.946;2.532;2023-07-28T02:36:53;5.13;;;4.40;;
19854;SDS011;10088;47.946;2.532;2023-07-28T02:39:18;4.93;;;3.60;;
19854;SDS011;10088;47.946;2.532;2023-07-28T02:41:44;5.87;;;3.87;;
19854;SDS011;10088;47.946;2.532;2023-07-28T02:44:09;4.40;;;3.97;;
19854;SDS011;10088;47.946;2.532;2023-07-28T02:46:35;4.37;;;3.47;;
19854;SDS011;10088;47.946;2.532;2023-07-28T02:49:02;4.97;;;3.33;;
19854;SDS011;10088;47.946;2.532;2023-07-28T02:51:28;8.07;;;3.60;;
19854;SDS011;10088;47.946;2.532;2023-07-28T02:53:54;6.07;;;3.27;;
19854;SDS011;10088;47.946;2.532;2023-07-28T02:56:19;4.13;;;3.10;;
19854;SDS011;10088;47.946;2.532;2023-07-28T02:58:45;3.60;;;3.20;;
19854;SDS011;10088;47.946;2.532;2023-07-28T03:01:10;4.73;;;3.33;;
19854;SDS011;10088;47.946;2.532;2023-07-28T03:03:36;4.37;;;3.27;;
19854;SDS011;10088;47.946;2.532;2023-07-28T03:06:01;4.63;;;3.47;;
19854;SDS011;10088;47.946;2.532;2023-07-28T03:08:26;6.47;;;3.60;;
19854;SDS011;10088;47.946;2.532;2023-07-28T03:10:55;4.07;;;3.53;;
19854;SDS011;10088;47.946;2.532;2023-07-28T03:13:21;4.60;;;3.33;;
19854;SDS011;10088;47.946;2.532;2023-07-28T03:15:46;5.17;;;3.60;;
19854;SDS011;10088;47.946;2.532;2023-07-28T03:18:11;4.50;;;3.53;;
19854;SDS011;10088;47.946;2.532;2023-07-28T03:20:36;5.77;;;3.40;;
19854;SDS011;10088;47.946;2.532;2023-07-28T03:23:02;5.57;;;3.87;;
19854;SDS011;10088;47.946;2.532;2023-07-28T03:25:27;6.50;;;3.70;;
19854;SDS011;10088;47.946;2.532;2023-07-28T03:27:52;5.00;;;3.93;;
19854;SDS011;10088;47.946;2.532;2023-07-28T03:30:17;5.37;;;3.60;;
19854;SDS011;10088;47.946;2.532;2023-07-28T03:32:43;4.40;;;3.43;;
19854;SDS011;10088;47.946;2.532;2023-07-28T03:35:08;5.13;;;3.47;;
19854;SDS011;10088;47.946;2.532;2023-07-28T03:37:34;3.73;;;3.33;;
19854;SDS011;10088;47.946;2.532;2023-07-28T03:39:59;4.20;;;3.33;;
19854;SDS011;10088;47.946;2.532;2023-07-28T03:42:25;4.57;;;3.30;;
19854;SDS011;10088;47.946;2.532;2023-07-28T03:44:50;5.23;;;3.67;;
19854;SDS011;10088;47.946;2.532;2023-07-28T03:47:15;9.77;;;3.57;;
19854;SDS011;10088;47.946;2.532;2023-07-28T03:49:41;4.40;;;3.60;;
19854;SDS011;10088;47.946;2.532;2023-07-28T03:52:06;4.67;;;3.80;;
19854;SDS011;10088;47.946;2.532;2023-07-28T03:54:31;3.93;;;3.23;;
19854;SDS011;10088;47.946;2.532;2023-07-28T03:56:56;6.97;;;3.80;;
19854;SDS011;10088;47.946;2.532;2023-07-28T03:59:22;4.17;;;3.13;;
19854;SDS011;10088;47.946;2.532;2023-07-28T04:01:47;4.87;;;3.43;;
19854;SDS011;10088;47.946;2.532;2023-07-28T04:04:13;5.43;;;3.70;;
19854;SDS011;10088;47.946;2.532;2023-07-28T04:06:39;6.03;;;3.43;;
19854;SDS011;10088;47.946;2.532;2023-07-28T04:09:04;7.17;;;3.70;;
19854;SDS011;10088;47.946;2.532;2023-07-28T04:11:29;4.37;;;3.53;;
19854;SDS011;10088;47.946;2.532;2023-07-28T04:13:55;6.83;;;3.80;;
19854;SDS011;10088;47.946;2.532;2023-07-28T04:16:20;5.73;;;3.80;;
19854;SDS011;10088;47.946;2.532;2023-07-28T04:18:45;4.87;;;3.13;;
19854;SDS011;10088;47.946;2.532;2023-07-28T04:21:10;6.17;;;3.93;;
19854;SDS011;10088;47.946;2.532;2023-07-28T04:23:35;5.07;;;3.47;;
19854;SDS011;10088;47.946;2.532;2023-07-28T04:26:01;8.57;;;3.63;;
19854;SDS011;10088;47.946;2.532;2023-07-28T04:28:26;7.40;;;3.60;;
19854;SDS011;10088;47.946;2.532;2023-07-28T04:30:51;6.23;;;4.40;;
19854;SDS011;10088;47.946;2.532;2023-07-28T04:33:16;4.40;;;3.43;;
19854;SDS011;10088;47.946;2.532;2023-07-28T04:35:42;7.63;;;3.70;;
19854;SDS011;10088;47.946;2.532;2023-07-28T04:38:07;4.97;;;3.10;;
19854;SDS011;10088;47.946;2.532;2023-07-28T04:40:32;7.00;;;3.70;;
19854;SDS011;10088;47.946;2.532;2023-07-28T04:42:57;8.40;;;4.10;;
19854;SDS011;10088;47.946;2.532;2023-07-28T04:45:23;7.23;;;3.90;;
19854;SDS011;10088;47.946;2.532;2023-07-28T04:47:48;6.27;;;4.27;;
19854;SDS011;10088;47.946;2.532;2023-07-28T04:50:13;5.80;;;3.80;;
19854;SDS011;10088;47.946;2.532;2023-07-28T04:52:38;9.37;;;4.17;;
19854;SDS011;10088;47.946;2.532;2023-07-28T04:55:04;6.20;;;3.60;;
19854;SDS011;10088;47.946;2.532;2023-07-28T04:57:30;5.63;;;4.00;;
19854;SDS011;10088;47.946;2.532;2023-07-28T04:59:55;4.13;;;3.30;;
19854;SDS011;10088;47.946;2.532;2023-07-28T05:02:20;4.63;;;3.27;;
19854;SDS011;10088;47.946;2.532;2023-07-28T05:04:45;8.20;;;3.70;;
19854;SDS011;10088;47.946;2.532;2023-07-28T05:07:11;6.40;;;3.17;;
19854;SDS011;10088;47.946;2.532;2023-07-28T05:09:36;4.90;;;3.40;;
19854;SDS011;10088;47.946;2.532;2023-07-28T05:12:02;3.97;;;3.10;;
19854;SDS011;10088;47.946;2.532;2023-07-28T05:14:27;5.53;;;2.90;;
19854;SDS011;10088;47.946;2.532;2023-07-28T05:16:52;3.20;;;2.67;;
19854;SDS011;10088;47.946;2.532;2023-07-28T05:19:18;2.57;;;2.00;;
19854;SDS011;10088;47.946;2.532;2023-07-28T05:21:43;2.90;;;2.43;;
19854;SDS011;10088;47.946;2.532;2023-07-28T05:24:08;3.37;;;2.07;;
19854;SDS011;10088;47.946;2.532;2023-07-28T05:26:35;4.40;;;2.40;;
19854;SDS011;10088;47.946;2.532;2023-07-28T05:29:03;4.57;;;2.37;;
19854;SDS011;10088;47.946;2.532;2023-07-28T05:31:28;3.20;;;2.33;;
19854;SDS011;10088;47.946;2.532;2023-07-28T05:36:23;3.10;;;2.20;;
19854;SDS011;10088;47.946;2.532;2023-07-28T05:38:48;3.13;;;2.03;;
19854;SDS011;10088;47.946;2.532;2023-07-28T05:41:14;2.47;;;1.90;;
19854;SDS011;10088;47.946;2.532;2023-07-28T05:43:40;2.53;;;1.93;;
19854;SDS011;10088;47.946;2.532;2023-07-28T05:46:05;2.47;;;2.20;;
19854;SDS011;10088;47.946;2.532;2023-07-28T05:48:30;2.40;;;1.90;;
19854;SDS011;10088;47.946;2.532;2023-07-28T05:50:55;2.37;;;2.03;;
19854;SDS011;10088;47.946;2.532;2023-07-28T05:53:21;1.60;;;1.50;;
19854;SDS011;10088;47.946;2.532;2023-07-28T05:55:46;2.87;;;2.00;;
19854;SDS011;10088;47.946;2.532;2023-07-28T05:58:12;3.10;;;1.80;;
19854;SDS011;10088;47.946;2.532;2023-07-28T06:00:38;1.60;;;1.50;;
19854;SDS011;10088;47.946;2.532;2023-07-28T06:03:04;2.13;;;1.53;;
19854;SDS011;10088;47.946;2.532;2023-07-28T06:05:29;1.70;;;1.57;;
19854;SDS011;10088;47.946;2.532;2023-07-28T06:07:54;1.50;;;1.40;;
19854;SDS011;10088;47.946;2.532;2023-07-28T06:10:20;2.00;;;1.57;;
19854;SDS011;10088;47.946;2.532;2023-07-28T06:12:45;1.83;;;1.37;;
19854;SDS011;10088;47.946;2.532;2023-07-28T06:15:10;1.83;;;1.60;;
19854;SDS011;10088;47.946;2.532;2023-07-28T06:17:35;1.30;;;1.20;;
19854;SDS011;10088;47.946;2.532;2023-07-28T06:20:01;1.47;;;1.37;;
19854;SDS011;10088;47.946;2.532;2023-07-28T06:22:26;1.70;;;1.60;;
19854;SDS011;10088;47.946;2.532;2023-07-28T06:24:51;2.13;;;1.70;;
19854;SDS011;10088;47.946;2.532;2023-07-28T06:27:16;2.53;;;1.70;;
19854;SDS011;10088;47.946;2.532;2023-07-28T06:29:42;1.83;;;1.53;;
19854;SDS011;10088;47.946;2.532;2023-07-28T06:32:07;2.00;;;1.90;;
19854;SDS011;10088;47.946;2.532;2023-07-28T06:34:32;3.33;;;2.10;;
19854;SDS011;10088;47.946;2.532;2023-07-28T06:36:58;2.40;;;2.10;;
19854;SDS011;10088;47.946;2.532;2023-07-28T06:39:23;3.40;;;1.83;;
19854;SDS011;10088;47.946;2.532;2023-07-28T06:41:49;2.30;;;2.10;;
19854;SDS011;10088;47.946;2.532;2023-07-28T06:44:14;1.77;;;1.67;;
19854;SDS011;10088;47.946;2.532;2023-07-28T06:46:40;2.20;;;2.00;;
19854;SDS011;10088;47.946;2.532;2023-07-28T06:49:05;2.53;;;1.90;;
19854;SDS011;10088;47.946;2.532;2023-07-28T06:51:30;2.27;;;2.07;;
19854;SDS011;10088;47.946;2.532;2023-07-28T06:53:55;2.23;;;2.03;;
19854;SDS011;10088;47.946;2.532;2023-07-28T06:56:21;2.97;;;1.90;;
19854;SDS011;10088;47.946;2.532;2023-07-28T06:58:46;2.40;;;1.83;;
19854;SDS011;10088;47.946;2.532;2023-07-28T07:01:12;2.30;;;1.77;;
19854;SDS011;10088;47.946;2.532;2023-07-28T07:03:37;2.73;;;2.20;;
19854;SDS011;10088;47.946;2.532;2023-07-28T07:06:02;2.60;;;1.60;;
19854;SDS011;10088;47.946;2.532;2023-07-28T07:08:27;1.50;;;1.37;;
19854;SDS011;10088;47.946;2.532;2023-07-28T07:10:53;1.70;;;1.60;;
19854;SDS011;10088;47.946;2.532;2023-07-28T07:13:18;3.20;;;1.50;;
19854;SDS011;10088;47.946;2.532;2023-07-28T07:15:44;1.57;;;1.33;;
19854;SDS011;10088;47.946;2.532;2023-07-28T07:18:09;1.63;;;1.47;;
19854;SDS011;10088;47.946;2.532;2023-07-28T07:20:35;1.63;;;1.30;;
19854;SDS011;10088;47.946;2.532;2023-07-28T07:23:00;2.00;;;1.33;;
19854;SDS011;10088;47.946;2.532;2023-07-28T07:25:26;1.43;;;1.30;;
19854;SDS011;10088;47.946;2.532;2023-07-28T07:27:51;4.60;;;1.60;;
19854;SDS011;10088;47.946;2.532;2023-07-28T07:30:16;1.47;;;1.37;;
19854;SDS011;10088;47.946;2.532;2023-07-28T07:32:41;1.40;;;1.27;;
19854;SDS011;10088;47.946;2.532;2023-07-28T07:35:07;0.97;;;0.93;;
19854;SDS011;10088;47.946;2.532;2023-07-28T07:37:33;3.57;;;1.40;;
19854;SDS011;10088;47.946;2.532;2023-07-28T07:39:59;2.70;;;1.10;;
19854;SDS011;10088;47.946;2.532;2023-07-28T07:42:26;1.43;;;1.33;;
19854;SDS011;10088;47.946;2.532;2023-07-28T07:44:51;3.90;;;1.20;;
19854;SDS011;10088;47.946;2.532;2023-07-28T07:47:16;3.23;;;1.87;;
19854;SDS011;10088;47.946;2.532;2023-07-28T07:49:42;6.70;;;3.27;;
19854;SDS011;10088;47.946;2.532;2023-07-28T07:52:08;9.30;;;5.03;;
19854;SDS011;10088;47.946;2.532;2023-07-28T07:54:36;14.07;;;9.07;;
19854;SDS011;10088;47.946;2.532;2023-07-28T07:57:01;19.93;;;13.33;;
19854;SDS011;10088;47.946;2.532;2023-07-28T07:59:27;15.90;;;10.43;;
19854;SDS011;10088;47.946;2.532;2023-07-28T08:01:55;11.60;;;8.37;;
19854;SDS011;10088;47.946;2.532;2023-07-28T08:04:21;12.23;;;8.23;;
19854;SDS011;10088;47.946;2.532;2023-07-28T08:06:46;7.80;;;5.33;;
19854;SDS011;10088;47.946;2.532;2023-07-28T08:09:11;5.97;;;4.17;;
19854;SDS011;10088;47.946;2.532;2023-07-28T08:11:37;6.93;;;3.90;;
19854;SDS011;10088;47.946;2.532;2023-07-28T08:14:02;4.93;;;2.73;;
19854;SDS011;10088;47.946;2.532;2023-07-28T08:16:28;5.43;;;3.57;;
19854;SDS011;10088;47.946;2.532;2023-07-28T08:18:53;5.13;;;2.70;;
19854;SDS011;10088;47.946;2.532;2023-07-28T08:21:19;2.83;;;2.50;;
19854;SDS011;10088;47.946;2.532;2023-07-28T08:23:44;2.17;;;1.90;;
19854;SDS011;10088;47.946;2.532;2023-07-28T08:26:09;2.07;;;1.60;;
19854;SDS011;10088;47.946;2.532;2023-07-28T08:28:34;3.03;;;1.50;;
19854;SDS011;10088;47.946;2.532;2023-07-28T08:31:00;1.60;;;1.50;;
19854;SDS011;10088;47.946;2.532;2023-07-28T08:33:25;1.80;;;1.47;;
19854;SDS011;10088;47.946;2.532;2023-07-28T08:35:50;2.03;;;1.00;;
19854;SDS011;10088;47.946;2.532;2023-07-28T08:38:16;0.83;;;0.80;;
19854;SDS011;10088;47.946;2.532;2023-07-28T08:40:43;1.40;;;0.97;;
19854;SDS011;10088;47.946;2.532;2023-07-28T08:43:09;1.27;;;1.17;;
19854;SDS011;10088;47.946;2.532;2023-07-28T08:45:34;1.20;;;1.10;;
19854;SDS011;10088;47.946;2.532;2023-07-28T08:47:59;1.20;;;1.10;;
19854;SDS011;10088;47.946;2.532;2023-07-28T08:50:25;1.30;;;1.20;;
19854;SDS011;10088;47.946;2.532;2023-07-28T08:52:50;2.30;;;1.13;;
19854;SDS011;10088;47.946;2.532;2023-07-28T08:55:16;1.30;;;1.20;;
19854;SDS011;10088;47.946;2.532;2023-07-28T08:57:42;2.67;;;1.60;;
19854;SDS011;10088;47.946;2.532;2023-07-28T09:00:11;2.80;;;1.20;;
19854;SDS011;10088;47.946;2.532;2023-07-28T09:02:39;1.33;;;1.23;;
19854;SDS011;10088;47.946;2.532;2023-07-28T09:05:05;1.50;;;1.40;;
19854;SDS011;10088;47.946;2.532;2023-07-28T09:07:34;1.20;;;1.10;;
19854;SDS011;10088;47.946;2.532;2023-07-28T09:10:00;1.50;;;1.40;;
19854;SDS011;10088;47.946;2.532;2023-07-28T09:12:26;1.83;;;1.60;;
19854;SDS011;10088;47.946;2.532;2023-07-28T09:14:55;1.47;;;1.37;;
19854;SDS011;10088;47.946;2.532;2023-07-28T09:17:21;2.00;;;1.60;;
19854;SDS011;10088;47.946;2.532;2023-07-28T09:19:53;3.53;;;1.87;;
19854;SDS011;10088;47.946;2.532;2023-07-28T09:22:18;1.90;;;1.70;;
19854;SDS011;10088;47.946;2.532;2023-07-28T09:24:45;1.87;;;1.60;;
19854;SDS011;10088;47.946;2.532;2023-07-28T09:27:19;3.40;;;1.67;;
19854;SDS011;10088;47.946;2.532;2023-07-28T09:29:47;1.70;;;1.30;;
19854;SDS011;10088;47.946;2.532;2023-07-28T09:32:12;1.30;;;1.20;;
19854;SDS011;10088;47.946;2.532;2023-07-28T09:34:38;1.57;;;1.30;;
19854;SDS011;10088;47.946;2.532;2023-07-28T09:37:04;1.70;;;1.60;;
19854;SDS011;10088;47.946;2.532;2023-07-28T09:39:30;1.90;;;1.50;;
19854;SDS011;10088;47.946;2.532;2023-07-28T09:41:56;1.50;;;1.40;;
19854;SDS011;10088;47.946;2.532;2023-07-28T09:44:23;3.33;;;2.20;;
19854;SDS011;10088;47.946;2.532;2023-07-28T09:46:49;2.97;;;1.47;;
19854;SDS011;10088;47.946;2.532;2023-07-28T09:49:16;1.20;;;1.10;;
19854;SDS011;10088;47.946;2.532;2023-07-28T09:51:45;3.27;;;1.30;;
19854;SDS011;10088;47.946;2.532;2023-07-28T09:54:12;1.40;;;1.30;;
19854;SDS011;10088;47.946;2.532;2023-07-28T09:56:41;1.30;;;1.10;;
19854;SDS011;10088;47.946;2.532;2023-07-28T09:59:10;1.03;;;1.00;;
19854;SDS011;10088;47.946;2.532;2023-07-28T10:01:36;1.23;;;1.13;;
19854;SDS011;10088;47.946;2.532;2023-07-28T10:04:02;1.23;;;1.10;;
19854;SDS011;10088;47.946;2.532;2023-07-28T10:06:27;1.00;;;0.90;;
19854;SDS011;10088;47.946;2.532;2023-07-28T10:08:55;1.37;;;0.97;;
19854;SDS011;10088;47.946;2.532;2023-07-28T10:11:31;1.10;;;0.90;;
19854;SDS011;10088;47.946;2.532;2023-07-28T10:13:57;0.97;;;0.87;;
19854;SDS011;10088;47.946;2.532;2023-07-28T10:16:56;1.00;;;0.73;;
19854;SDS011;10088;47.946;2.532;2023-07-28T10:19:14;0.77;;;0.77;;
19854;SDS011;10088;47.946;2.532;2023-07-28T10:21:44;1.50;;;0.90;;
19854;SDS011;10088;47.946;2.532;2023-07-28T10:24:10;1.10;;;0.80;;
19854;SDS011;10088;47.946;2.532;2023-07-28T10:26:38;1.33;;;0.90;;
19854;SDS011;10088;47.946;2.532;2023-07-28T10:31:35;0.70;;;0.70;;
19854;SDS011;10088;47.946;2.532;2023-07-28T10:34:01;1.30;;;0.60;;
19854;SDS011;10088;47.946;2.532;2023-07-28T10:39:02;0.60;;;0.60;;
19854;SDS011;10088;47.946;2.532;2023-07-28T10:41:37;0.87;;;0.50;;
19854;SDS011;10088;47.946;2.532;2023-07-28T10:44:02;0.93;;;0.57;;
19854;SDS011;10088;47.946;2.532;2023-07-28T10:46:28;0.67;;;0.60;;
19854;SDS011;10088;47.946;2.532;2023-07-28T10:48:53;0.40;;;0.40;;
19854;SDS011;10088;47.946;2.532;2023-07-28T10:51:22;1.57;;;0.50;;
19854;SDS011;10088;47.946;2.532;2023-07-28T10:54:00;0.40;;;0.40;;
19854;SDS011;10088;47.946;2.532;2023-07-28T10:56:43;0.50;;;0.47;;
19854;SDS011;10088;47.946;2.532;2023-07-28T10:59:16;1.57;;;0.60;;
19854;SDS011;10088;47.946;2.532;2023-07-28T11:05:04;0.33;;;0.33;;
19854;SDS011;10088;47.946;2.532;2023-07-28T11:07:54;1.43;;;0.50;;
19854;SDS011;10088;47.946;2.532;2023-07-28T11:10:35;0.70;;;0.47;;
19854;SDS011;10088;47.946;2.532;2023-07-28T11:16:10;0.50;;;0.50;;
19854;SDS011;10088;47.946;2.532;2023-07-28T11:18:38;0.53;;;0.47;;
19854;SDS011;10088;47.946;2.532;2023-07-28T11:21:04;1.70;;;0.40;;
19854;SDS011;10088;47.946;2.532;2023-07-28T11:23:29;0.60;;;0.30;;
19854;SDS011;10088;47.946;2.532;2023-07-28T11:25:54;0.43;;;0.43;;
19854;SDS011;10088;47.946;2.532;2023-07-28T11:28:20;2.13;;;0.50;;
19854;SDS011;10088;47.946;2.532;2023-07-28T11:30:46;0.60;;;0.40;;
19854;SDS011;10088;47.946;2.532;2023-07-28T11:33:12;0.33;;;0.33;;
19854;SDS011;10088;47.946;2.532;2023-07-28T11:35:39;1.53;;;0.30;;
19854;SDS011;10088;47.946;2.532;2023-07-28T11:38:07;0.80;;;0.40;;
19854;SDS011;10088;47.946;2.532;2023-07-28T11:40:33;0.30;;;0.30;;
19854;SDS011;10088;47.946;2.532;2023-07-28T11:42:58;2.23;;;0.40;;
19854;SDS011;10088;47.946;2.532;2023-07-28T11:45:24;1.30;;;0.43;;
19854;SDS011;10088;47.946;2.532;2023-07-28T11:48:00;0.30;;;0.30;;
19854;SDS011;10088;47.946;2.532;2023-07-28T11:50:26;0.40;;;0.40;;
19854;SDS011;10088;47.946;2.532;2023-07-28T11:52:51;0.40;;;0.40;;
19854;SDS011;10088;47.946;2.532;2023-07-28T11:55:17;0.83;;;0.70;;
19854;SDS011;10088;47.946;2.532;2023-07-28T11:57:43;0.60;;;0.60;;
19854;SDS011;10088;47.946;2.532;2023-07-28T12:00:08;0.50;;;0.50;;
19854;SDS011;10088;47.946;2.532;2023-07-28T12:02:34;1.97;;;0.97;;
19854;SDS011;10088;47.946;2.532;2023-07-28T12:05:00;3.57;;;1.10;;
19854;SDS011;10088;47.946;2.532;2023-07-28T12:07:29;0.97;;;0.80;;
19854;SDS011;10088;47.946;2.532;2023-07-28T12:09:57;1.63;;;1.10;;
19854;SDS011;10088;47.946;2.532;2023-07-28T12:12:27;2.67;;;0.90;;
19854;SDS011;10088;47.946;2.532;2023-07-28T12:14:54;1.23;;;0.90;;
19854;SDS011;10088;47.946;2.532;2023-07-28T12:17:20;1.63;;;0.90;;
19854;SDS011;10088;47.946;2.532;2023-07-28T12:19:59;1.77;;;1.10;;
19854;SDS011;10088;47.946;2.532;2023-07-28T12:22:28;1.30;;;1.20;;
19854;SDS011;10088;47.946;2.532;2023-07-28T12:24:54;1.00;;;0.90;;
19854;SDS011;10088;47.946;2.532;2023-07-28T12:27:19;2.30;;;1.47;;
19854;SDS011;10088;47.946;2.532;2023-07-28T12:29:50;1.70;;;1.20;;
19854;SDS011;10088;47.946;2.532;2023-07-28T12:32:15;1.63;;;1.10;;
19854;SDS011;10088;47.946;2.532;2023-07-28T12:34:41;1.53;;;1.03;;
19854;SDS011;10088;47.946;2.532;2023-07-28T12:37:06;1.40;;;1.20;;
19854;SDS011;10088;47.946;2.532;2023-07-28T12:39:31;1.40;;;0.90;;
19854;SDS011;10088;47.946;2.532;2023-07-28T12:41:57;1.73;;;0.90;;
19854;SDS011;10088;47.946;2.532;2023-07-28T12:44:22;2.70;;;1.07;;
19854;SDS011;10088;47.946;2.532;2023-07-28T12:46:47;1.37;;;1.00;;
19854;SDS011;10088;47.946;2.532;2023-07-28T12:49:13;2.10;;;1.00;;
19854;SDS011;10088;47.946;2.532;2023-07-28T12:51:40;3.13;;;1.30;;
19854;SDS011;10088;47.946;2.532;2023-07-28T12:54:05;3.37;;;0.80;;
19854;SDS011;10088;47.946;2.532;2023-07-28T12:56:30;1.27;;;0.97;;
19854;SDS011;10088;47.946;2.532;2023-07-28T12:58:55;1.30;;;0.90;;
19854;SDS011;10088;47.946;2.532;2023-07-28T13:01:21;1.80;;;1.10;;
19854;SDS011;10088;47.946;2.532;2023-07-28T13:03:46;2.00;;;0.97;;
19854;SDS011;10088;47.946;2.532;2023-07-28T13:06:12;1.80;;;0.93;;
19854;SDS011;10088;47.946;2.532;2023-07-28T13:08:37;2.77;;;0.87;;
19854;SDS011;10088;47.946;2.532;2023-07-28T13:11:02;0.97;;;0.80;;
19854;SDS011;10088;47.946;2.532;2023-07-28T13:13:28;2.33;;;0.90;;
19854;SDS011;10088;47.946;2.532;2023-07-28T13:15:55;2.90;;;1.23;;
19854;SDS011;10088;47.946;2.532;2023-07-28T13:18:20;1.40;;;0.90;;
19854;SDS011;10088;47.946;2.532;2023-07-28T13:20:45;1.20;;;0.80;;
19854;SDS011;10088;47.946;2.532;2023-07-28T13:23:11;2.30;;;1.10;;
19854;SDS011;10088;47.946;2.532;2023-07-28T13:25:36;2.83;;;1.07;;
19854;SDS011;10088;47.946;2.532;2023-07-28T13:28:01;2.43;;;0.80;;
19854;SDS011;10088;47.946;2.532;2023-07-28T13:30:26;1.53;;;1.00;;
19854;SDS011;10088;47.946;2.532;2023-07-28T13:32:52;3.63;;;0.83;;
19854;SDS011;10088;47.946;2.532;2023-07-28T13:35:17;1.93;;;1.00;;
19854;SDS011;10088;47.946;2.532;2023-07-28T13:37:42;1.73;;;1.13;;
19854;SDS011;10088;47.946;2.532;2023-07-28T13:40:08;2.77;;;0.80;;
19854;SDS011;10088;47.946;2.532;2023-07-28T13:42:33;1.20;;;0.90;;
19854;SDS011;10088;47.946;2.532;2023-07-28T13:44:58;1.57;;;1.00;;
19854;SDS011;10088;47.946;2.532;2023-07-28T13:47:23;3.27;;;1.17;;
19854;SDS011;10088;47.946;2.532;2023-07-28T13:49:49;1.37;;;1.00;;
19854;SDS011;10088;47.946;2.532;2023-07-28T13:52:14;2.70;;;0.93;;
19854;SDS011;10088;47.946;2.532;2023-07-28T13:54:39;1.73;;;0.97;;
19854;SDS011;10088;47.946;2.532;2023-07-28T13:57:05;3.17;;;1.20;;
19854;SDS011;10088;47.946;2.532;2023-07-28T13:59:30;3.10;;;1.20;;
19854;SDS011;10088;47.946;2.532;2023-07-28T14:01:55;1.43;;;1.00;;
19854;SDS011;10088;47.946;2.532;2023-07-28T14:04:22;1.83;;;1.10;;
19854;SDS011;10088;47.946;2.532;2023-07-28T14:06:48;2.17;;;1.10;;
19854;SDS011;10088;47.946;2.532;2023-07-28T14:09:13;2.63;;;1.10;;
19854;SDS011;10088;47.946;2.532;2023-07-28T14:11:38;2.87;;;1.37;;
19854;SDS011;10088;47.946;2.532;2023-07-28T14:14:03;1.90;;;1.10;;
19854;SDS011;10088;47.946;2.532;2023-07-28T14:16:29;2.50;;;1.00;;
19854;SDS011;10088;47.946;2.532;2023-07-28T14:18:55;2.77;;;1.30;;
19854;SDS011;10088;47.946;2.532;2023-07-28T14:21:20;3.03;;;1.30;;
19854;SDS011;10088;47.946;2.532;2023-07-28T14:23:45;3.87;;;1.47;;
19854;SDS011;10088;47.946;2.532;2023-07-28T14:26:10;2.67;;;1.17;;
19854;SDS011;10088;47.946;2.532;2023-07-28T14:28:36;3.73;;;0.97;;
19854;SDS011;10088;47.946;2.532;2023-07-28T14:31:01;2.67;;;1.40;;
19854;SDS011;10088;47.946;2.532;2023-07-28T14:33:26;4.00;;;1.20;;
19854;SDS011;10088;47.946;2.532;2023-07-28T14:35:52;3.70;;;1.63;;
19854;SDS011;10088;47.946;2.532;2023-07-28T14:38:17;2.90;;;1.43;;
19854;SDS011;10088;47.946;2.532;2023-07-28T14:40:42;2.77;;;1.30;;
19854;SDS011;10088;47.946;2.532;2023-07-28T14:43:11;2.77;;;1.10;;
19854;SDS011;10088;47.946;2.532;2023-07-28T14:45:37;3.93;;;1.20;;
19854;SDS011;10088;47.946;2.532;2023-07-28T14:48:02;2.07;;;1.10;;
19854;SDS011;10088;47.946;2.532;2023-07-28T14:50:28;2.30;;;1.60;;
19854;SDS011;10088;47.946;2.532;2023-07-28T14:52:53;1.83;;;1.10;;
19854;SDS011;10088;47.946;2.532;2023-07-28T14:55:18;4.20;;;1.20;;
19854;SDS011;10088;47.946;2.532;2023-07-28T14:57:44;2.47;;;1.33;;